createdAt,value
2019-05-02T00:04:45.022Z,99.60
2019-05-02T00:09:51.635Z,99.60
2019-05-02T00:15:01.904Z,99.60
2019-05-02T00:20:08.468Z,99.60
2019-05-02T00:25:16.053Z,99.60
2019-05-02T00:30:21.563Z,99.60
2019-05-02T00:35:27.862Z,99.60
2019-05-02T00:40:34.353Z,99.60
2019-05-02T00:45:40.104Z,99.60
2019-05-02T00:50:50.721Z,99.60
2019-05-02T00:55:53.803Z,99.60
2019-05-02T01:01:24.287Z,99.60
2019-05-02T01:06:31.102Z,99.60
2019-05-02T01:11:36.908Z,99.60
2019-05-02T01:16:42.337Z,99.60
2019-05-02T01:21:48.829Z,99.60
2019-05-02T01:27:04.548Z,99.60
2019-05-02T01:32:16.889Z,99.60
2019-05-02T01:37:26.983Z,99.60
2019-05-02T01:42:39.888Z,99.60
2019-05-02T01:47:42.048Z,99.60
2019-05-02T01:52:48.143Z,99.60
2019-05-02T01:57:54.526Z,99.60
2019-05-02T02:03:04.255Z,99.60
2019-05-02T02:08:08.939Z,99.60
2019-05-02T02:13:15.690Z,99.60
2019-05-02T02:18:27.603Z,99.60
2019-05-02T02:23:52.647Z,99.60
2019-05-02T02:29:03.039Z,99.60
2019-05-02T02:34:07.792Z,99.60
2019-05-02T02:39:16.799Z,99.60
2019-05-02T02:44:41.692Z,99.60
2019-05-02T02:49:48.250Z,99.60
2019-05-02T02:54:53.726Z,99.60
2019-05-02T03:00:07.615Z,99.60
2019-05-02T03:05:07.353Z,99.60
2019-05-02T03:10:12.985Z,99.60
2019-05-02T03:15:20.928Z,99.60
2019-05-02T03:20:27.377Z,99.60
2019-05-02T03:25:50.016Z,99.60
2019-05-02T03:30:41.669Z,99.60
2019-05-02T03:35:49.624Z,99.60
2019-05-02T03:40:56.023Z,99.60
2019-05-02T03:46:02.977Z,99.60
2019-05-02T03:51:19.759Z,99.60
2019-05-02T03:56:16.036Z,99.60
2019-05-02T04:01:23.462Z,99.60
2019-05-02T04:06:31.966Z,99.60
2019-05-02T04:11:39.205Z,99.60
2019-05-02T04:16:48.710Z,99.60
2019-05-02T04:21:54.948Z,99.60
2019-05-02T04:27:01.544Z,99.60
2019-05-02T04:32:11.766Z,99.60
2019-05-02T04:37:14.886Z,99.60
2019-05-02T04:42:23.144Z,99.60
2019-05-02T04:47:30.169Z,99.60
2019-05-02T04:52:38.404Z,99.60
2019-05-02T04:57:47.218Z,99.60
2019-05-02T05:02:53.177Z,99.60
2019-05-02T05:08:00.270Z,99.60
2019-05-02T05:13:07.722Z,99.60
2019-05-02T05:18:14.614Z,99.60
2019-05-02T05:23:30.654Z,99.60
2019-05-02T05:28:40.456Z,99.60
2019-05-02T05:33:47.781Z,99.60
2019-05-02T05:38:54.246Z,99.60
2019-05-02T05:44:00.940Z,99.60
2019-05-02T05:49:10.562Z,99.60
2019-05-02T05:54:15.112Z,99.60
2019-05-02T05:59:22.273Z,99.60
2019-05-02T06:04:32.726Z,99.60
2019-05-02T06:09:36.551Z,99.60
2019-05-02T06:14:47.881Z,99.60
2019-05-02T06:19:55.432Z,99.60
2019-05-02T06:25:09.457Z,99.60
2019-05-02T06:30:15.563Z,99.60
2019-05-02T06:35:22.474Z,99.60
2019-05-02T06:40:28.825Z,99.60
2019-05-02T06:45:37.625Z,99.60
2019-05-02T06:50:41.992Z,99.60
2019-05-02T06:55:48.463Z,99.60
2019-05-02T07:00:58.231Z,99.60
2019-05-02T07:06:02.954Z,99.60
2019-05-02T07:11:11.499Z,99.60
2019-05-02T07:16:38.512Z,99.60
2019-05-02T07:21:41.972Z,99.60
2019-05-02T07:26:47.621Z,99.60
2019-05-02T07:31:53.712Z,99.60
2019-05-02T07:36:59.734Z,99.60
2019-05-02T07:42:07.700Z,99.60
2019-05-02T07:47:13.580Z,99.60
2019-05-02T07:52:19.879Z,99.60
2019-05-02T07:57:30.557Z,99.60
2019-05-02T08:02:35.179Z,99.60
2019-05-02T08:07:41.666Z,99.60
2019-05-02T08:12:47.433Z,99.60
2019-05-02T08:17:55.297Z,99.60
2019-05-02T08:23:01.064Z,99.60
2019-05-02T08:28:28.634Z,99.60
2019-05-02T08:33:35.956Z,99.60
2019-05-02T08:38:42.881Z,99.60
2019-05-02T08:43:49.394Z,99.60
2019-05-02T08:48:56.592Z,98.00
2019-05-02T08:54:03.273Z,96.00
2019-05-02T08:59:11.173Z,97.90
2019-05-02T09:04:16.538Z,97.20
2019-05-02T09:09:22.767Z,96.40
2019-05-02T09:14:32.170Z,94.10
2019-05-02T09:19:38.819Z,94.20
2019-05-02T09:24:44.967Z,93.50
2019-05-02T09:29:51.928Z,92.80
2019-05-02T09:35:02.184Z,92.70
2019-05-02T09:40:06.968Z,92.50
2019-05-02T09:45:18.457Z,91.00
2019-05-02T09:50:29.695Z,89.40
2019-05-02T09:55:32.161Z,89.80
2019-05-02T10:00:58.151Z,88.50
2019-05-02T10:06:18.056Z,87.80
2019-05-02T10:11:22.502Z,85.80
2019-05-02T10:16:31.897Z,87.80
2019-05-02T10:21:37.748Z,89.20
2019-05-02T10:26:44.973Z,89.50
2019-05-02T10:31:52.478Z,87.20
2019-05-02T10:36:59.099Z,86.00
2019-05-02T10:42:06.632Z,86.30
2019-05-02T10:47:12.873Z,86.90
2019-05-02T10:52:21.678Z,84.60
2019-05-02T10:57:27.007Z,80.90
2019-05-02T11:02:54.301Z,79.60
2019-05-02T11:08:04.736Z,80.60
2019-05-02T11:13:12.518Z,78.30
2019-05-02T11:18:38.780Z,79.00
2019-05-02T11:23:32.695Z,76.90
2019-05-02T11:28:38.836Z,75.50
2019-05-02T11:33:45.071Z,78.90
2019-05-02T11:38:57.319Z,81.60
2019-05-02T11:43:59.392Z,77.60
2019-05-02T11:49:05.698Z,75.40
2019-05-02T11:54:12.935Z,73.20
2019-05-02T11:59:27.622Z,73.90
2019-05-02T12:04:29.570Z,71.10
2019-05-02T12:09:35.005Z,70.00
2019-05-02T12:14:41.873Z,69.40
2019-05-02T12:19:47.379Z,69.60
2019-05-02T12:24:52.965Z,68.40
2019-05-02T12:29:59.419Z,66.60
2019-05-02T12:35:07.099Z,64.20
2019-05-02T12:40:12.941Z,65.90
2019-05-02T12:45:19.244Z,66.30
2019-05-02T12:50:25.082Z,65.00
2019-05-02T12:55:32.621Z,66.30
2019-05-02T13:00:39.937Z,67.30
2019-05-02T13:05:46.362Z,69.50
2019-05-02T13:11:13.921Z,67.60
2019-05-02T13:16:18.184Z,65.10
2019-05-02T13:21:39.236Z,64.20
2019-05-02T13:26:35.674Z,68.50
2019-05-02T13:31:56.437Z,66.40
2019-05-02T13:37:02.922Z,67.50
2019-05-02T13:42:09.873Z,67.20
2019-05-02T13:47:17.819Z,68.10
2019-05-02T13:52:24.323Z,68.80
2019-05-02T13:57:35.007Z,71.30
2019-05-02T14:02:42.708Z,74.90
2019-05-02T14:07:55.563Z,82.80
2019-05-02T14:13:00.272Z,85.90
2019-05-02T14:18:06.998Z,87.50
2019-05-02T14:23:13.069Z,88.40
2019-05-02T14:28:22.529Z,88.90
2019-05-02T14:33:32.885Z,91.30
2019-05-02T14:38:42.426Z,93.70
2019-05-02T14:43:53.737Z,94.00
2019-05-02T14:48:59.660Z,94.10
2019-05-02T14:54:08.447Z,96.60
2019-05-02T14:59:19.583Z,99.60
2019-05-02T15:04:22.687Z,99.40
2019-05-02T15:09:29.265Z,99.60
2019-05-02T15:14:35.542Z,98.10
2019-05-02T15:19:42.762Z,97.70
2019-05-02T15:24:48.271Z,98.20
2019-05-02T15:30:00.805Z,97.50
2019-05-02T15:35:17.690Z,96.60
2019-05-02T15:45:36.804Z,95.00
2019-05-02T15:50:51.622Z,95.10
2019-05-02T16:02:17.682Z,94.20
2019-05-02T16:07:24.226Z,94.20
2019-05-02T16:12:32.092Z,93.70
2019-05-02T16:17:38.890Z,93.10
2019-05-02T16:22:49.551Z,92.30
2019-05-02T16:27:57.524Z,92.90
2019-05-02T16:33:02.760Z,95.20
2019-05-02T16:38:08.785Z,98.20
2019-05-02T16:43:15.650Z,98.30
2019-05-02T16:48:23.587Z,98.30
2019-05-02T16:53:31.042Z,99.30
2019-05-02T16:58:43.314Z,99.50
2019-05-02T17:03:45.248Z,99.60
2019-05-02T17:08:58.754Z,99.60
2019-05-02T17:14:06.987Z,99.60
2019-05-02T17:19:13.388Z,99.60
2019-05-02T17:24:24.620Z,99.60
2019-05-02T17:29:27.195Z,99.60
2019-05-02T17:34:35.054Z,99.60
2019-05-02T17:39:42.593Z,99.60
2019-05-02T17:44:51.879Z,99.60
2019-05-02T17:49:58.343Z,99.60
2019-05-02T17:55:04.546Z,99.60
2019-05-02T18:00:16.894Z,99.60
2019-05-02T18:05:26.562Z,99.60
2019-05-02T18:10:32.325Z,99.60
2019-05-02T18:15:39.182Z,99.60
2019-05-02T18:20:46.575Z,99.60
2019-05-02T18:25:57.367Z,99.60
2019-05-02T18:31:02.730Z,99.60
2019-05-02T18:36:08.812Z,99.60
2019-05-02T18:41:14.508Z,99.60
2019-05-02T18:46:22.292Z,99.60
2019-05-02T18:51:29.573Z,99.60
2019-05-02T18:56:42.867Z,99.60
2019-05-02T19:01:47.419Z,99.60
2019-05-02T19:06:52.232Z,99.60
2019-05-02T19:12:05.329Z,99.60
2019-05-02T19:17:07.651Z,99.60
2019-05-02T19:22:17.070Z,99.60
2019-05-02T19:27:40.447Z,99.60
2019-05-02T19:32:47.021Z,99.60
2019-05-02T19:37:55.090Z,99.60
2019-05-02T19:43:05.919Z,99.60
2019-05-02T19:48:13.791Z,99.60
2019-05-02T19:53:19.882Z,99.60
2019-05-02T19:58:26.319Z,99.60
2019-05-02T20:03:33.021Z,99.60
2019-05-02T20:08:41.838Z,99.60
2019-05-02T20:13:47.430Z,99.60
2019-05-02T20:18:52.845Z,99.60
2019-05-02T20:24:01.485Z,99.60
2019-05-02T20:29:06.986Z,99.60
2019-05-02T20:34:12.988Z,99.60
2019-05-02T20:39:18.865Z,99.60
2019-05-02T20:44:25.548Z,99.60
2019-05-02T20:49:32.038Z,99.60
2019-05-02T20:54:38.978Z,99.60
2019-05-02T20:59:45.723Z,99.60
2019-05-02T21:04:52.097Z,99.60
2019-05-02T21:10:06.788Z,99.60
2019-05-02T21:15:12.809Z,99.60
2019-05-02T21:20:18.378Z,99.60
2019-05-02T21:25:24.267Z,99.60
2019-05-02T21:30:32.273Z,99.60
2019-05-02T21:35:38.893Z,99.60
2019-05-02T21:40:45.227Z,99.60
2019-05-02T21:45:51.698Z,99.60
2019-05-02T21:51:09.658Z,99.60
2019-05-02T21:56:23.081Z,99.60
2019-05-02T22:01:28.838Z,99.60
2019-05-02T22:06:36.039Z,99.60
2019-05-02T22:11:43.092Z,99.60
2019-05-02T22:16:49.776Z,99.60
2019-05-02T22:21:57.100Z,99.60
2019-05-02T22:27:03.996Z,99.60
2019-05-02T22:32:12.213Z,99.60
2019-05-02T22:37:18.796Z,99.60
2019-05-02T22:42:24.768Z,99.60
2019-05-02T22:47:32.026Z,99.60
2019-05-02T22:52:37.543Z,99.60
2019-05-02T22:57:44.110Z,99.60
2019-05-02T23:02:52.376Z,99.60
2019-05-02T23:07:58.540Z,99.60
2019-05-02T23:13:04.569Z,99.60
2019-05-02T23:18:12.208Z,99.60
2019-05-02T23:23:18.700Z,99.60
2019-05-02T23:28:26.398Z,99.60
2019-05-02T23:33:51.643Z,99.60
2019-05-02T23:38:58.489Z,99.60
2019-05-02T23:44:04.428Z,99.60
2019-05-02T23:49:09.785Z,99.60
2019-05-02T23:54:15.320Z,99.60
2019-05-02T23:59:22.391Z,99.60
